| Date | Time | Temp. (oF) | Dew Point (oF) | Rel. Hum. (%) | Press. (in.) | Wind Dir. | Wind Speed (mph) | Hourly Rainfall (in.) |
|
|---|---|---|---|---|---|---|---|---|---|
| 1 | 08/25 | 00:00 | 72 | 67 | 85 | 29.78 | W | 2 | 0.00 |
| 2 | 08/24 | 23:00 | 73 | 68 | 86 | 29.78 | SW | 0 | 0.00 |
| 3 | 08/24 | 22:00 | 74 | 69 | 86 | 29.77 | SSW | 1 | 0.00 |
| 4 | 08/24 | 21:00 | 74 | 69 | 86 | 29.75 | NNE | 0 | 0.03 |
| 5 | 08/24 | 20:00 | 74 | 68 | 84 | 29.75 | SSW | 2 | 0.00 |
| 6 | 08/24 | 19:00 | 75 | 68 | 81 | 29.75 | SW | 2 | 0.03 |
| 7 | 08/24 | 18:00 | 81 | 66 | 61 | 29.74 | SSW | 6 | 0.00 |
| 8 | 08/24 | 17:00 | 84 | 67 | 58 | 29.72 | SSE | 4 | 0.00 |
| 9 | 08/24 | 16:00 | 85 | 67 | 56 | 29.73 | S | 8 | 0.00 |
| 10 | 08/24 | 15:00 | 86 | 66 | 53 | 29.75 | SW | 0 | 0.00 |
| 11 | 08/24 | 14:00 | 84 | 66 | 56 | 29.78 | SW | 3 | 0.00 |
| 12 | 08/24 | 13:00 | 83 | 67 | 60 | 29.80 | S | 1 | 0.00 |
| 13 | 08/24 | 12:00 | 82 | 68 | 63 | 29.82 | S | 7 | 0.00 |
| 14 | 08/24 | 11:00 | 79 | 66 | 65 | 29.83 | SSW | 6 | 0.00 |
| 15 | 08/24 | 10:00 | 76 | 65 | 70 | 29.83 | SSW | 4 | 0.00 |
| 16 | 08/24 | 09:00 | 72 | 63 | 76 | 29.85 | SSE | 2 | 0.00 |
| 17 | 08/24 | 08:00 | 65 | 60 | 86 | 29.85 | ESE | 0 | 0.00 |
| 18 | 08/24 | 07:00 | 62 | 58 | 87 | 29.84 | ESE | 0 | 0.00 |
| 19 | 08/24 | 06:00 | 62 | 58 | 87 | 29.84 | ESE | 0 | 0.00 |
| 20 | 08/24 | 05:00 | 62 | 58 | 87 | 29.84 | ESE | 0 | 0.00 |
| 21 | 08/24 | 04:00 | 62 | 58 | 87 | 29.84 | E | 0 | 0.00 |
| 22 | 08/24 | 03:00 | 62 | 57 | 86 | 29.84 | E | 0 | 0.00 |
| 23 | 08/24 | 02:00 | 62 | 57 | 85 | 29.85 | ESE | 0 | 0.00 |
| 24 | 08/24 | 01:00 | 63 | 58 | 84 | 29.85 | ESE | 0 | 0.00 |